»·PEaware :: N86LW S36-KORS

N86LW :: S36-KORS

FLIGHT INFORMATION

Flight Status: Arrived
Operator: Privately registered:
United States
More flights under this callsign
Pilot: Anonymous 30613 (30613)
Aircraft: PIPER PA-28R-201 ARROW
(P28R)
More flights by this aircraft type
Origin: S36 Norman Grier Field
United States
Destination: KORS Orcas Island
United States
More flights between these airports :: More routes between these airports
Route:
File this flight plan on PilotEdge
Remarks:
Altitude:
(Current/Filed)
4,500ft
Speed:
(Current/Filed)
130kts
Departed: 14-Sep-20 04:57 PM
Arrived: 14-Sep-20 05:43 PM
Distance/Time
Traveled:
88nm/0:46
Distance/Time
To Go:
Arrived

Flight Plot

Page will automatically refresh every two minutes.

Flight plan parsing failed; only flown route is shown


Map Options




Map Legend


Flown Route
Filed Route
Departure Airport
Arrival Airport
Navaid (VOR, NDB)
Fix

Horizontal Profiles

Position Reports

Time Latitude Longitude Heading Altitude Ground
Speed
14-Sep-20 16:41 47.340807 -122.103307 260 474ft 0kts
14-Sep-20 16:42 47.340807 -122.103307 260 474ft 0kts
14-Sep-20 16:43 47.340807 -122.103307 260 474ft 0kts
14-Sep-20 16:44 47.340833 -122.103379 326 474ft 1kts
14-Sep-20 16:45 47.339969 -122.103930 170 474ft 15kts
14-Sep-20 16:46 47.333668 -122.102425 171 474ft 22kts
14-Sep-20 16:47 47.333099 -122.102255 176 474ft 0kts
14-Sep-20 16:48 47.333099 -122.102255 176 474ft 0kts
14-Sep-20 16:49 47.333099 -122.102255 176 474ft 0kts
14-Sep-20 16:50 47.333099 -122.102255 176 474ft 0kts
14-Sep-20 16:51 47.333086 -122.102253 172 474ft 3kts
14-Sep-20 16:52 47.333045 -122.102299 312 474ft 0kts
14-Sep-20 16:53 47.333045 -122.102299 312 474ft 0kts
14-Sep-20 16:54 47.333045 -122.102299 312 474ft 0kts
14-Sep-20 16:55 47.333045 -122.102299 312 474ft 0kts
14-Sep-20 16:56 47.339772 -122.103975 354 574ft 76kts
14-Sep-20 16:57 47.361926 -122.109605 348 1443ft 81kts
14-Sep-20 16:58 47.384237 -122.116363 354 2098ft 81kts
14-Sep-20 16:59 47.407257 -122.121389 349 2688ft 91kts
14-Sep-20 17:00 47.437977 -122.132444 348 2776ft 130kts
14-Sep-20 17:01 47.474021 -122.141893 355 2734ft 126kts
14-Sep-20 17:02 47.508390 -122.151044 352 2747ft 127kts
14-Sep-20 17:03 47.543633 -122.155825 350 2781ft 127kts
14-Sep-20 17:04 47.578530 -122.164791 351 2811ft 127kts
14-Sep-20 17:05 47.613548 -122.171689 350 2827ft 127kts
14-Sep-20 17:06 47.648121 -122.183501 347 2789ft 129kts
14-Sep-20 17:07 47.682938 -122.195981 346 2774ft 127kts
14-Sep-20 17:08 47.717970 -122.206139 349 2774ft 128kts
14-Sep-20 17:09 47.752769 -122.218109 351 2782ft 128kts
14-Sep-20 17:10 47.787185 -122.225255 349 3197ft 118kts
14-Sep-20 17:11 47.819521 -122.234186 351 3637ft 118kts
14-Sep-20 17:12 47.852250 -122.240636 355 4032ft 119kts
14-Sep-20 17:13 47.884756 -122.250668 353 4396ft 120kts
14-Sep-20 17:14 47.919100 -122.258435 353 4529ft 128kts
14-Sep-20 17:15 47.954285 -122.267398 349 4539ft 128kts
14-Sep-20 17:16 47.989506 -122.276359 349 4547ft 128kts
14-Sep-20 17:17 48.024672 -122.285671 346 4551ft 128kts
14-Sep-20 17:18 48.059538 -122.297837 344 4556ft 128kts
14-Sep-20 17:19 48.094525 -122.308320 352 4564ft 128kts
14-Sep-20 17:20 48.128870 -122.322892 348 4561ft 129kts
14-Sep-20 17:21 48.163985 -122.332358 349 4577ft 128kts
14-Sep-20 17:22 48.198734 -122.345035 343 4582ft 128kts
14-Sep-20 17:23 48.233482 -122.357319 351 4588ft 128kts
14-Sep-20 17:24 48.268793 -122.365396 352 4595ft 128kts
14-Sep-20 17:26 48.304320 -122.370882 353 4600ft 128kts
14-Sep-20 17:27 48.338538 -122.383388 323 4587ft 129kts
14-Sep-20 17:28 48.363684 -122.421521 313 4600ft 128kts
14-Sep-20 17:29 48.388311 -122.460572 312 4606ft 128kts
14-Sep-20 17:30 48.411993 -122.500736 315 4609ft 128kts
14-Sep-20 17:31 48.435961 -122.540722 311 4629ft 128kts
14-Sep-20 17:32 48.458726 -122.582443 308 4653ft 128kts
14-Sep-20 17:33 48.481813 -122.622545 314 4646ft 130kts
14-Sep-20 17:34 48.506400 -122.663070 314 4505ft 133kts
14-Sep-20 17:35 48.531539 -122.705105 311 3853ft 136kts
14-Sep-20 17:36 48.557726 -122.745619 313 3200ft 134kts
14-Sep-20 17:37 48.582086 -122.788096 309 2579ft 133kts
14-Sep-20 17:38 48.606657 -122.828011 318 2274ft 129kts
14-Sep-20 17:39 48.629782 -122.869292 311 1970ft 128kts
14-Sep-20 17:39 48.648411 -122.906300 307 1470ft 130kts
14-Sep-20 17:41 48.679494 -122.910871 359 851ft 96kts
14-Sep-20 17:42 48.702385 -122.910664 1 105ft 71kts
14-Sep-20 17:43 48.709375 -122.910013 180 15ft 6kts
14-Sep-20 17:43 48.706419 -122.910005 179 31ft 15kts
14-Sep-20 17:44 48.705419 -122.909576 184 35ft 0kts
14-Sep-20 17:46 48.705446 -122.909579 177 35ft 0kts

Navigation Log

Ident Type
Flight plan parsing failed, navigation log unavailable